Terminal Aerodrome Forecast
Issued by NWS

Home | Current Version | Previous Version | Text Only | Print | Product List | Glossary On
Versions: 1 2 3 4 5 6 7 8 9 10 11 12 13 14 15 16 17 18 19
000
FTUS41 KCAR 251736
TAFPQI
TAF
KPQI 251736Z 2518/2618 18009KT P6SM SCT090
     FM252100 20007KT 6SM TSRA BKN050CB
      TEMPO 2521/2524 22006KT 1SM +TSRA BKN010CB
     FM260000 00000KT 2SM TSRA BKN010 OVC030CB
     FM260200 31009KT P6SM OVC020
     FM261600 34011KT P6SM BKN035=

USA.gov is the U.S. government's official web portal to all federal, state and local government web resources and services.